sensor_id;sensor_type;location;lat;lon;timestamp;P1;durP1;ratioP1;P2;durP2;ratioP2
15567;SDS011;7885;42.596;23.044;2023-02-01T00:00:26;4.27;;;3.83;;
15567;SDS011;7885;42.596;23.044;2023-02-01T00:02:54;5.47;;;4.60;;
15567;SDS011;7885;42.596;23.044;2023-02-01T00:05:20;5.67;;;4.50;;
15567;SDS011;7885;42.596;23.044;2023-02-01T00:07:47;4.30;;;3.90;;
15567;SDS011;7885;42.596;23.044;2023-02-01T00:10:14;7.30;;;5.00;;
15567;SDS011;7885;42.596;23.044;2023-02-01T00:12:41;9.70;;;6.40;;
15567;SDS011;7885;42.596;23.044;2023-02-01T00:15:08;10.10;;;5.80;;
15567;SDS011;7885;42.596;23.044;2023-02-01T00:17:35;4.60;;;3.77;;
15567;SDS011;7885;42.596;23.044;2023-02-01T00:20:04;5.03;;;3.57;;
15567;SDS011;7885;42.596;23.044;2023-02-01T00:22:31;5.43;;;3.83;;
15567;SDS011;7885;42.596;23.044;2023-02-01T00:24:58;6.10;;;3.90;;
15567;SDS011;7885;42.596;23.044;2023-02-01T00:27:25;6.70;;;4.57;;
15567;SDS011;7885;42.596;23.044;2023-02-01T00:29:53;6.60;;;4.90;;
15567;SDS011;7885;42.596;23.044;2023-02-01T00:32:20;5.90;;;3.77;;
15567;SDS011;7885;42.596;23.044;2023-02-01T00:34:47;7.73;;;5.23;;
15567;SDS011;7885;42.596;23.044;2023-02-01T00:37:15;7.23;;;5.20;;
15567;SDS011;7885;42.596;23.044;2023-02-01T00:39:42;6.23;;;4.53;;
15567;SDS011;7885;42.596;23.044;2023-02-01T00:42:08;7.30;;;4.97;;
15567;SDS011;7885;42.596;23.044;2023-02-01T00:44:36;5.67;;;4.20;;
15567;SDS011;7885;42.596;23.044;2023-02-01T00:47:02;4.73;;;4.20;;
15567;SDS011;7885;42.596;23.044;2023-02-01T00:49:29;5.17;;;4.40;;
15567;SDS011;7885;42.596;23.044;2023-02-01T00:51:56;5.20;;;4.50;;
15567;SDS011;7885;42.596;23.044;2023-02-01T00:54:24;7.53;;;4.87;;
15567;SDS011;7885;42.596;23.044;2023-02-01T00:56:51;9.97;;;6.87;;
15567;SDS011;7885;42.596;23.044;2023-02-01T00:59:18;6.17;;;5.13;;
15567;SDS011;7885;42.596;23.044;2023-02-01T01:01:45;9.93;;;5.63;;
15567;SDS011;7885;42.596;23.044;2023-02-01T01:04:12;7.00;;;4.87;;
15567;SDS011;7885;42.596;23.044;2023-02-01T01:06:39;5.07;;;4.23;;
15567;SDS011;7885;42.596;23.044;2023-02-01T01:09:06;3.63;;;3.20;;
15567;SDS011;7885;42.596;23.044;2023-02-01T01:11:35;4.77;;;3.40;;
15567;SDS011;7885;42.596;23.044;2023-02-01T01:14:04;3.13;;;2.83;;
15567;SDS011;7885;42.596;23.044;2023-02-01T01:16:32;2.67;;;2.47;;
15567;SDS011;7885;42.596;23.044;2023-02-01T01:18:59;4.00;;;3.60;;
15567;SDS011;7885;42.596;23.044;2023-02-01T01:21:27;5.47;;;4.07;;
15567;SDS011;7885;42.596;23.044;2023-02-01T01:23:54;8.07;;;5.50;;
15567;SDS011;7885;42.596;23.044;2023-02-01T01:26:21;9.30;;;6.10;;
15567;SDS011;7885;42.596;23.044;2023-02-01T01:28:51;8.30;;;5.53;;
15567;SDS011;7885;42.596;23.044;2023-02-01T01:31:19;14.37;;;8.20;;
15567;SDS011;7885;42.596;23.044;2023-02-01T01:33:48;14.60;;;8.37;;
15567;SDS011;7885;42.596;23.044;2023-02-01T01:36:16;13.90;;;7.60;;
15567;SDS011;7885;42.596;23.044;2023-02-01T01:38:43;14.10;;;9.23;;
15567;SDS011;7885;42.596;23.044;2023-02-01T01:41:11;14.50;;;9.87;;
15567;SDS011;7885;42.596;23.044;2023-02-01T01:43:49;13.70;;;8.80;;
15567;SDS011;7885;42.596;23.044;2023-02-01T01:46:20;11.90;;;7.43;;
15567;SDS011;7885;42.596;23.044;2023-02-01T01:48:48;12.07;;;7.43;;
15567;SDS011;7885;42.596;23.044;2023-02-01T01:51:19;9.43;;;6.20;;
15567;SDS011;7885;42.596;23.044;2023-02-01T01:53:51;8.53;;;4.63;;
15567;SDS011;7885;42.596;23.044;2023-02-01T01:56:23;8.27;;;4.50;;
15567;SDS011;7885;42.596;23.044;2023-02-01T01:58:54;5.23;;;3.87;;
15567;SDS011;7885;42.596;23.044;2023-02-01T02:01:21;9.90;;;5.30;;
15567;SDS011;7885;42.596;23.044;2023-02-01T02:03:48;15.40;;;5.90;;
15567;SDS011;7885;42.596;23.044;2023-02-01T02:06:20;14.10;;;5.17;;
15567;SDS011;7885;42.596;23.044;2023-02-01T02:08:56;10.03;;;4.77;;
15567;SDS011;7885;42.596;23.044;2023-02-01T02:11:23;14.60;;;5.13;;
15567;SDS011;7885;42.596;23.044;2023-02-01T02:13:50;15.60;;;5.93;;
15567;SDS011;7885;42.596;23.044;2023-02-01T02:16:24;14.77;;;6.23;;
15567;SDS011;7885;42.596;23.044;2023-02-01T02:19:16;19.10;;;7.13;;
15567;SDS011;7885;42.596;23.044;2023-02-01T02:28:19;13.33;;;6.63;;
15567;SDS011;7885;42.596;23.044;2023-02-01T02:34:15;9.80;;;6.80;;
15567;SDS011;7885;42.596;23.044;2023-02-01T02:36:50;14.07;;;8.57;;
15567;SDS011;7885;42.596;23.044;2023-02-01T02:39:28;17.67;;;9.93;;
15567;SDS011;7885;42.596;23.044;2023-02-01T02:42:07;18.63;;;10.60;;
15567;SDS011;7885;42.596;23.044;2023-02-01T02:44:58;12.90;;;8.47;;
15567;SDS011;7885;42.596;23.044;2023-02-01T02:47:50;9.77;;;6.50;;
15567;SDS011;7885;42.596;23.044;2023-02-01T02:50:24;11.40;;;7.90;;
15567;SDS011;7885;42.596;23.044;2023-02-01T02:53:13;7.70;;;6.10;;
15567;SDS011;7885;42.596;23.044;2023-02-01T02:56:00;6.20;;;5.37;;
15567;SDS011;7885;42.596;23.044;2023-02-01T02:58:46;8.10;;;6.43;;
15567;SDS011;7885;42.596;23.044;2023-02-01T03:01:31;12.00;;;6.93;;
15567;SDS011;7885;42.596;23.044;2023-02-01T03:04:16;11.17;;;6.90;;
15567;SDS011;7885;42.596;23.044;2023-02-01T03:06:46;11.17;;;7.27;;
15567;SDS011;7885;42.596;23.044;2023-02-01T03:09:14;8.70;;;5.37;;
15567;SDS011;7885;42.596;23.044;2023-02-01T03:11:47;8.20;;;5.87;;
15567;SDS011;7885;42.596;23.044;2023-02-01T03:14:37;10.47;;;5.30;;
15567;SDS011;7885;42.596;23.044;2023-02-01T03:17:11;9.30;;;5.77;;
15567;SDS011;7885;42.596;23.044;2023-02-01T03:19:42;9.33;;;5.90;;
15567;SDS011;7885;42.596;23.044;2023-02-01T03:22:16;7.77;;;5.17;;
15567;SDS011;7885;42.596;23.044;2023-02-01T03:24:46;6.23;;;4.20;;
15567;SDS011;7885;42.596;23.044;2023-02-01T03:27:18;7.77;;;5.90;;
15567;SDS011;7885;42.596;23.044;2023-02-01T03:29:49;12.30;;;8.13;;
15567;SDS011;7885;42.596;23.044;2023-02-01T03:32:22;5.77;;;4.37;;
15567;SDS011;7885;42.596;23.044;2023-02-01T03:34:49;5.73;;;3.40;;
15567;SDS011;7885;42.596;23.044;2023-02-01T03:37:21;5.83;;;4.17;;
15567;SDS011;7885;42.596;23.044;2023-02-01T03:39:53;7.47;;;5.83;;
15567;SDS011;7885;42.596;23.044;2023-02-01T03:42:26;5.20;;;4.17;;
15567;SDS011;7885;42.596;23.044;2023-02-01T03:44:57;5.40;;;3.83;;
15567;SDS011;7885;42.596;23.044;2023-02-01T03:47:33;8.17;;;7.37;;
15567;SDS011;7885;42.596;23.044;2023-02-01T03:50:05;7.37;;;4.80;;
15567;SDS011;7885;42.596;23.044;2023-02-01T03:52:37;5.87;;;4.00;;
15567;SDS011;7885;42.596;23.044;2023-02-01T03:55:08;5.83;;;4.03;;
15567;SDS011;7885;42.596;23.044;2023-02-01T03:57:38;10.30;;;9.13;;
15567;SDS011;7885;42.596;23.044;2023-02-01T04:00:14;10.63;;;8.37;;
15567;SDS011;7885;42.596;23.044;2023-02-01T04:02:43;8.13;;;7.00;;
15567;SDS011;7885;42.596;23.044;2023-02-01T04:05:10;7.13;;;5.97;;
15567;SDS011;7885;42.596;23.044;2023-02-01T04:07:38;11.50;;;7.70;;
15567;SDS011;7885;42.596;23.044;2023-02-01T04:10:05;12.27;;;8.40;;
15567;SDS011;7885;42.596;23.044;2023-02-01T04:12:33;11.97;;;8.40;;
15567;SDS011;7885;42.596;23.044;2023-02-01T04:15:00;12.83;;;9.57;;
15567;SDS011;7885;42.596;23.044;2023-02-01T04:17:26;12.80;;;9.00;;
15567;SDS011;7885;42.596;23.044;2023-02-01T04:19:53;11.27;;;8.53;;
15567;SDS011;7885;42.596;23.044;2023-02-01T04:22:20;12.13;;;8.27;;
15567;SDS011;7885;42.596;23.044;2023-02-01T04:24:48;9.20;;;6.47;;
15567;SDS011;7885;42.596;23.044;2023-02-01T04:27:15;6.43;;;5.73;;
15567;SDS011;7885;42.596;23.044;2023-02-01T04:29:42;9.37;;;5.67;;
15567;SDS011;7885;42.596;23.044;2023-02-01T04:32:10;8.67;;;6.87;;
15567;SDS011;7885;42.596;23.044;2023-02-01T04:34:37;8.33;;;6.73;;
15567;SDS011;7885;42.596;23.044;2023-02-01T04:37:03;8.33;;;6.83;;
15567;SDS011;7885;42.596;23.044;2023-02-01T04:39:30;17.23;;;11.87;;
15567;SDS011;7885;42.596;23.044;2023-02-01T04:41:58;17.97;;;11.97;;
15567;SDS011;7885;42.596;23.044;2023-02-01T04:44:25;16.13;;;13.13;;
15567;SDS011;7885;42.596;23.044;2023-02-01T04:46:52;8.60;;;5.90;;
15567;SDS011;7885;42.596;23.044;2023-02-01T04:49:18;8.73;;;5.93;;
15567;SDS011;7885;42.596;23.044;2023-02-01T04:51:46;7.97;;;5.93;;
15567;SDS011;7885;42.596;23.044;2023-02-01T04:54:13;9.47;;;5.67;;
15567;SDS011;7885;42.596;23.044;2023-02-01T04:56:40;8.40;;;6.97;;
15567;SDS011;7885;42.596;23.044;2023-02-01T04:59:09;10.50;;;8.33;;
15567;SDS011;7885;42.596;23.044;2023-02-01T05:01:36;20.23;;;12.13;;
15567;SDS011;7885;42.596;23.044;2023-02-01T05:04:03;11.00;;;7.70;;
15567;SDS011;7885;42.596;23.044;2023-02-01T05:06:30;47.97;;;27.37;;
15567;SDS011;7885;42.596;23.044;2023-02-01T05:08:57;22.87;;;14.40;;
15567;SDS011;7885;42.596;23.044;2023-02-01T05:11:24;25.37;;;14.93;;
15567;SDS011;7885;42.596;23.044;2023-02-01T05:14:04;19.67;;;13.63;;
15567;SDS011;7885;42.596;23.044;2023-02-01T05:16:32;23.10;;;13.03;;
15567;SDS011;7885;42.596;23.044;2023-02-01T05:18:59;25.07;;;13.80;;
15567;SDS011;7885;42.596;23.044;2023-02-01T05:21:26;19.73;;;13.50;;
15567;SDS011;7885;42.596;23.044;2023-02-01T05:23:52;9.03;;;7.17;;
15567;SDS011;7885;42.596;23.044;2023-02-01T05:26:37;10.67;;;7.10;;
15567;SDS011;7885;42.596;23.044;2023-02-01T05:29:04;8.80;;;5.73;;
15567;SDS011;7885;42.596;23.044;2023-02-01T05:31:33;7.47;;;5.90;;
15567;SDS011;7885;42.596;23.044;2023-02-01T05:34:00;36.97;;;23.83;;
15567;SDS011;7885;42.596;23.044;2023-02-01T05:36:27;10.00;;;6.87;;
15567;SDS011;7885;42.596;23.044;2023-02-01T05:38:54;3.40;;;2.77;;
15567;SDS011;7885;42.596;23.044;2023-02-01T05:41:21;4.47;;;3.20;;
15567;SDS011;7885;42.596;23.044;2023-02-01T05:43:48;5.10;;;3.60;;
15567;SDS011;7885;42.596;23.044;2023-02-01T05:46:15;4.53;;;3.83;;
15567;SDS011;7885;42.596;23.044;2023-02-01T05:48:43;4.97;;;4.03;;
15567;SDS011;7885;42.596;23.044;2023-02-01T05:51:10;7.77;;;5.53;;
15567;SDS011;7885;42.596;23.044;2023-02-01T05:53:38;20.13;;;14.40;;
15567;SDS011;7885;42.596;23.044;2023-02-01T05:56:05;12.40;;;7.57;;
15567;SDS011;7885;42.596;23.044;2023-02-01T05:58:32;6.27;;;4.07;;
15567;SDS011;7885;42.596;23.044;2023-02-01T06:00:59;8.40;;;6.40;;
15567;SDS011;7885;42.596;23.044;2023-02-01T06:03:26;12.60;;;9.10;;
15567;SDS011;7885;42.596;23.044;2023-02-01T06:05:54;21.17;;;14.53;;
15567;SDS011;7885;42.596;23.044;2023-02-01T06:08:21;11.87;;;9.13;;
15567;SDS011;7885;42.596;23.044;2023-02-01T06:10:49;11.17;;;8.10;;
15567;SDS011;7885;42.596;23.044;2023-02-01T06:13:16;11.07;;;8.40;;
15567;SDS011;7885;42.596;23.044;2023-02-01T06:15:45;11.93;;;8.43;;
15567;SDS011;7885;42.596;23.044;2023-02-01T06:18:12;6.17;;;4.70;;
15567;SDS011;7885;42.596;23.044;2023-02-01T06:20:40;7.03;;;5.27;;
15567;SDS011;7885;42.596;23.044;2023-02-01T06:23:09;22.47;;;12.83;;
15567;SDS011;7885;42.596;23.044;2023-02-01T06:25:36;5.10;;;3.87;;
15567;SDS011;7885;42.596;23.044;2023-02-01T06:28:03;4.10;;;2.87;;
15567;SDS011;7885;42.596;23.044;2023-02-01T06:30:30;4.07;;;3.43;;
15567;SDS011;7885;42.596;23.044;2023-02-01T06:32:57;4.87;;;3.27;;
15567;SDS011;7885;42.596;23.044;2023-02-01T06:35:24;4.07;;;3.30;;
15567;SDS011;7885;42.596;23.044;2023-02-01T06:37:51;6.40;;;3.47;;
15567;SDS011;7885;42.596;23.044;2023-02-01T06:40:19;3.90;;;3.47;;
15567;SDS011;7885;42.596;23.044;2023-02-01T06:42:47;5.37;;;4.73;;
15567;SDS011;7885;42.596;23.044;2023-02-01T06:45:14;10.40;;;8.97;;
15567;SDS011;7885;42.596;23.044;2023-02-01T06:47:41;15.67;;;11.47;;
15567;SDS011;7885;42.596;23.044;2023-02-01T06:50:09;18.40;;;14.10;;
15567;SDS011;7885;42.596;23.044;2023-02-01T06:52:36;17.60;;;14.50;;
15567;SDS011;7885;42.596;23.044;2023-02-01T06:55:03;19.30;;;16.17;;
15567;SDS011;7885;42.596;23.044;2023-02-01T06:57:32;16.30;;;13.27;;
15567;SDS011;7885;42.596;23.044;2023-02-01T07:00:00;14.17;;;11.13;;
15567;SDS011;7885;42.596;23.044;2023-02-01T07:02:28;24.23;;;17.77;;
15567;SDS011;7885;42.596;23.044;2023-02-01T07:04:55;20.97;;;16.40;;
15567;SDS011;7885;42.596;23.044;2023-02-01T07:07:22;12.33;;;7.90;;
15567;SDS011;7885;42.596;23.044;2023-02-01T07:09:49;6.83;;;4.93;;
15567;SDS011;7885;42.596;23.044;2023-02-01T07:12:16;7.50;;;6.30;;
15567;SDS011;7885;42.596;23.044;2023-02-01T07:14:45;8.07;;;5.40;;
15567;SDS011;7885;42.596;23.044;2023-02-01T07:17:11;9.07;;;5.60;;
15567;SDS011;7885;42.596;23.044;2023-02-01T07:19:38;10.03;;;6.40;;
15567;SDS011;7885;42.596;23.044;2023-02-01T07:22:05;35.60;;;23.77;;
15567;SDS011;7885;42.596;23.044;2023-02-01T07:24:33;65.60;;;42.47;;
15567;SDS011;7885;42.596;23.044;2023-02-01T07:27:00;43.60;;;29.97;;
15567;SDS011;7885;42.596;23.044;2023-02-01T07:29:26;45.43;;;31.30;;
15567;SDS011;7885;42.596;23.044;2023-02-01T07:31:55;68.73;;;46.53;;
15567;SDS011;7885;42.596;23.044;2023-02-01T07:34:22;38.27;;;27.90;;
15567;SDS011;7885;42.596;23.044;2023-02-01T07:36:49;38.43;;;26.07;;
15567;SDS011;7885;42.596;23.044;2023-02-01T07:39:16;37.50;;;27.43;;
15567;SDS011;7885;42.596;23.044;2023-02-01T07:41:43;36.37;;;28.93;;
15567;SDS011;7885;42.596;23.044;2023-02-01T07:44:10;37.87;;;28.83;;
15567;SDS011;7885;42.596;23.044;2023-02-01T07:46:37;41.33;;;31.37;;
15567;SDS011;7885;42.596;23.044;2023-02-01T07:49:09;36.67;;;27.07;;
15567;SDS011;7885;42.596;23.044;2023-02-01T07:51:37;32.63;;;24.23;;
15567;SDS011;7885;42.596;23.044;2023-02-01T07:54:04;36.33;;;26.23;;
15567;SDS011;7885;42.596;23.044;2023-02-01T07:56:31;43.83;;;29.23;;
15567;SDS011;7885;42.596;23.044;2023-02-01T07:58:57;42.13;;;29.60;;
15567;SDS011;7885;42.596;23.044;2023-02-01T08:01:26;43.97;;;32.63;;
15567;SDS011;7885;42.596;23.044;2023-02-01T08:03:57;33.50;;;24.60;;
15567;SDS011;7885;42.596;23.044;2023-02-01T08:06:28;28.17;;;20.27;;
15567;SDS011;7885;42.596;23.044;2023-02-01T08:08:57;27.03;;;19.30;;
15567;SDS011;7885;42.596;23.044;2023-02-01T08:11:24;28.07;;;18.17;;
15567;SDS011;7885;42.596;23.044;2023-02-01T08:13:53;31.30;;;20.67;;
15567;SDS011;7885;42.596;23.044;2023-02-01T08:16:21;30.97;;;23.90;;
15567;SDS011;7885;42.596;23.044;2023-02-01T08:18:49;32.23;;;23.33;;
15567;SDS011;7885;42.596;23.044;2023-02-01T08:21:18;29.07;;;22.27;;
15567;SDS011;7885;42.596;23.044;2023-02-01T08:23:50;42.17;;;27.40;;
15567;SDS011;7885;42.596;23.044;2023-02-01T08:26:18;26.63;;;19.00;;
15567;SDS011;7885;42.596;23.044;2023-02-01T08:28:48;16.30;;;12.40;;
15567;SDS011;7885;42.596;23.044;2023-02-01T08:31:17;13.87;;;11.13;;
15567;SDS011;7885;42.596;23.044;2023-02-01T08:33:49;14.80;;;10.57;;
15567;SDS011;7885;42.596;23.044;2023-02-01T08:36:16;22.03;;;13.43;;
15567;SDS011;7885;42.596;23.044;2023-02-01T08:38:44;16.97;;;10.40;;
15567;SDS011;7885;42.596;23.044;2023-02-01T08:41:12;16.17;;;10.27;;
15567;SDS011;7885;42.596;23.044;2023-02-01T08:43:40;9.93;;;6.67;;
15567;SDS011;7885;42.596;23.044;2023-02-01T08:46:08;10.50;;;7.80;;
15567;SDS011;7885;42.596;23.044;2023-02-01T08:48:36;12.33;;;9.20;;
15567;SDS011;7885;42.596;23.044;2023-02-01T08:51:05;10.27;;;7.63;;
15567;SDS011;7885;42.596;23.044;2023-02-01T08:53:33;8.20;;;6.03;;
15567;SDS011;7885;42.596;23.044;2023-02-01T08:56:02;4.13;;;1.87;;
15567;SDS011;7885;42.596;23.044;2023-02-01T08:58:30;1.60;;;1.50;;
15567;SDS011;7885;42.596;23.044;2023-02-01T09:01:02;1.77;;;1.50;;
15567;SDS011;7885;42.596;23.044;2023-02-01T09:03:32;2.10;;;1.60;;
15567;SDS011;7885;42.596;23.044;2023-02-01T09:06:05;2.80;;;1.60;;
15567;SDS011;7885;42.596;23.044;2023-02-01T09:08:38;3.17;;;1.90;;
15567;SDS011;7885;42.596;23.044;2023-02-01T09:11:07;2.27;;;1.60;;
15567;SDS011;7885;42.596;23.044;2023-02-01T09:13:38;3.40;;;1.53;;
15567;SDS011;7885;42.596;23.044;2023-02-01T09:16:05;1.97;;;1.30;;
15567;SDS011;7885;42.596;23.044;2023-02-01T09:18:32;4.23;;;1.90;;
15567;SDS011;7885;42.596;23.044;2023-02-01T09:21:03;1.73;;;1.47;;
15567;SDS011;7885;42.596;23.044;2023-02-01T09:23:35;2.17;;;1.40;;
15567;SDS011;7885;42.596;23.044;2023-02-01T09:26:02;3.10;;;1.50;;
15567;SDS011;7885;42.596;23.044;2023-02-01T09:28:31;2.13;;;1.37;;
15567;SDS011;7885;42.596;23.044;2023-02-01T09:30:59;2.73;;;1.60;;
15567;SDS011;7885;42.596;23.044;2023-02-01T09:33:27;2.80;;;1.83;;
15567;SDS011;7885;42.596;23.044;2023-02-01T09:35:55;14.53;;;7.73;;
15567;SDS011;7885;42.596;23.044;2023-02-01T09:38:23;12.77;;;8.10;;
15567;SDS011;7885;42.596;23.044;2023-02-01T09:40:52;7.33;;;4.53;;
15567;SDS011;7885;42.596;23.044;2023-02-01T09:43:21;6.37;;;4.07;;
15567;SDS011;7885;42.596;23.044;2023-02-01T09:46:11;5.83;;;4.90;;
15567;SDS011;7885;42.596;23.044;2023-02-01T09:48:46;8.87;;;6.60;;
15567;SDS011;7885;42.596;23.044;2023-02-01T09:51:15;13.00;;;7.30;;
15567;SDS011;7885;42.596;23.044;2023-02-01T09:53:47;10.77;;;7.23;;
15567;SDS011;7885;42.596;23.044;2023-02-01T09:56:26;2.80;;;2.40;;
15567;SDS011;7885;42.596;23.044;2023-02-01T09:59:01;3.53;;;2.47;;
15567;SDS011;7885;42.596;23.044;2023-02-01T10:01:38;3.07;;;1.70;;
15567;SDS011;7885;42.596;23.044;2023-02-01T10:04:06;2.33;;;1.53;;
15567;SDS011;7885;42.596;23.044;2023-02-01T10:06:38;2.00;;;1.43;;
15567;SDS011;7885;42.596;23.044;2023-02-01T10:09:27;2.33;;;1.60;;
15567;SDS011;7885;42.596;23.044;2023-02-01T10:15:28;4.83;;;2.70;;
15567;SDS011;7885;42.596;23.044;2023-02-01T10:18:10;4.20;;;2.30;;
15567;SDS011;7885;42.596;23.044;2023-02-01T10:20:51;19.40;;;10.57;;
15567;SDS011;7885;42.596;23.044;2023-02-01T10:23:37;6.33;;;3.67;;
15567;SDS011;7885;42.596;23.044;2023-02-01T10:26:19;4.03;;;2.60;;
15567;SDS011;7885;42.596;23.044;2023-02-01T10:28:48;5.30;;;3.70;;
15567;SDS011;7885;42.596;23.044;2023-02-01T10:31:17;5.10;;;2.50;;
15567;SDS011;7885;42.596;23.044;2023-02-01T10:33:46;50.40;;;23.20;;
15567;SDS011;7885;42.596;23.044;2023-02-01T10:36:16;20.03;;;10.33;;
15567;SDS011;7885;42.596;23.044;2023-02-01T10:38:47;7.27;;;4.00;;
15567;SDS011;7885;42.596;23.044;2023-02-01T10:41:15;10.60;;;4.23;;
15567;SDS011;7885;42.596;23.044;2023-02-01T10:43:44;19.70;;;10.50;;
15567;SDS011;7885;42.596;23.044;2023-02-01T10:46:15;3.10;;;2.10;;
15567;SDS011;7885;42.596;23.044;2023-02-01T10:48:43;5.63;;;2.27;;
15567;SDS011;7885;42.596;23.044;2023-02-01T10:51:13;4.67;;;2.53;;
15567;SDS011;7885;42.596;23.044;2023-02-01T10:53:47;3.10;;;2.10;;
15567;SDS011;7885;42.596;23.044;2023-02-01T10:56:21;5.23;;;2.50;;
15567;SDS011;7885;42.596;23.044;2023-02-01T10:58:49;4.20;;;2.70;;
15567;SDS011;7885;42.596;23.044;2023-02-01T11:01:19;10.20;;;6.40;;
15567;SDS011;7885;42.596;23.044;2023-02-01T11:03:51;21.03;;;12.17;;
15567;SDS011;7885;42.596;23.044;2023-02-01T11:06:24;4.77;;;3.20;;
15567;SDS011;7885;42.596;23.044;2023-02-01T11:08:55;9.90;;;6.70;;
15567;SDS011;7885;42.596;23.044;2023-02-01T11:11:24;7.27;;;3.97;;
15567;SDS011;7885;42.596;23.044;2023-02-01T11:13:52;7.53;;;4.17;;
15567;SDS011;7885;42.596;23.044;2023-02-01T11:16:28;5.47;;;3.63;;
15567;SDS011;7885;42.596;23.044;2023-02-01T11:18:58;5.63;;;4.07;;
15567;SDS011;7885;42.596;23.044;2023-02-01T11:21:27;6.53;;;3.07;;
15567;SDS011;7885;42.596;23.044;2023-02-01T11:23:54;2.70;;;1.80;;
15567;SDS011;7885;42.596;23.044;2023-02-01T11:26:26;8.47;;;4.20;;
15567;SDS011;7885;42.596;23.044;2023-02-01T11:28:55;6.60;;;3.97;;
15567;SDS011;7885;42.596;23.044;2023-02-01T11:31:24;3.50;;;2.30;;
15567;SDS011;7885;42.596;23.044;2023-02-01T11:33:53;7.80;;;5.17;;
15567;SDS011;7885;42.596;23.044;2023-02-01T11:36:24;4.23;;;2.97;;
15567;SDS011;7885;42.596;23.044;2023-02-01T11:39:07;5.00;;;3.70;;
15567;SDS011;7885;42.596;23.044;2023-02-01T11:41:42;7.53;;;4.20;;
15567;SDS011;7885;42.596;23.044;2023-02-01T11:44:18;3.63;;;2.70;;
15567;SDS011;7885;42.596;23.044;2023-02-01T11:46:48;2.97;;;2.40;;
15567;SDS011;7885;42.596;23.044;2023-02-01T11:49:19;7.80;;;4.40;;
15567;SDS011;7885;42.596;23.044;2023-02-01T11:51:52;4.73;;;2.90;;
15567;SDS011;7885;42.596;23.044;2023-02-01T11:54:33;3.10;;;1.80;;
15567;SDS011;7885;42.596;23.044;2023-02-01T11:57:16;5.07;;;3.77;;
15567;SDS011;7885;42.596;23.044;2023-02-01T12:00:02;6.47;;;4.67;;
15567;SDS011;7885;42.596;23.044;2023-02-01T12:02:50;5.60;;;4.13;;
15567;SDS011;7885;42.596;23.044;2023-02-01T12:05:37;4.37;;;2.77;;
15567;SDS011;7885;42.596;23.044;2023-02-01T12:08:25;7.33;;;5.60;;
15567;SDS011;7885;42.596;23.044;2023-02-01T12:11:18;6.50;;;4.37;;
15567;SDS011;7885;42.596;23.044;2023-02-01T12:13:59;5.13;;;3.80;;
15567;SDS011;7885;42.596;23.044;2023-02-01T12:16:37;5.57;;;3.00;;
15567;SDS011;7885;42.596;23.044;2023-02-01T12:19:19;4.40;;;2.90;;
15567;SDS011;7885;42.596;23.044;2023-02-01T12:22:06;5.00;;;3.30;;
15567;SDS011;7885;42.596;23.044;2023-02-01T12:24:48;4.20;;;2.10;;
15567;SDS011;7885;42.596;23.044;2023-02-01T12:27:44;3.27;;;2.80;;
15567;SDS011;7885;42.596;23.044;2023-02-01T12:30:30;5.27;;;4.00;;
15567;SDS011;7885;42.596;23.044;2023-02-01T12:33:07;4.47;;;3.10;;
15567;SDS011;7885;42.596;23.044;2023-02-01T12:35:47;4.67;;;2.70;;
15567;SDS011;7885;42.596;23.044;2023-02-01T12:38:28;6.93;;;4.00;;
15567;SDS011;7885;42.596;23.044;2023-02-01T12:41:11;4.27;;;3.07;;
15567;SDS011;7885;42.596;23.044;2023-02-01T12:43:47;5.47;;;2.70;;
15567;SDS011;7885;42.596;23.044;2023-02-01T12:46:21;9.83;;;6.50;;
15567;SDS011;7885;42.596;23.044;2023-02-01T12:48:54;5.53;;;3.50;;
15567;SDS011;7885;42.596;23.044;2023-02-01T12:51:25;5.67;;;3.30;;
15567;SDS011;7885;42.596;23.044;2023-02-01T12:53:57;6.07;;;3.60;;
15567;SDS011;7885;42.596;23.044;2023-02-01T12:56:32;8.17;;;5.53;;
15567;SDS011;7885;42.596;23.044;2023-02-01T12:59:04;4.77;;;3.00;;
15567;SDS011;7885;42.596;23.044;2023-02-01T13:01:46;3.63;;;2.80;;
15567;SDS011;7885;42.596;23.044;2023-02-01T13:04:23;2.97;;;2.30;;
15567;SDS011;7885;42.596;23.044;2023-02-01T13:06:57;3.43;;;2.60;;
15567;SDS011;7885;42.596;23.044;2023-02-01T13:09:34;5.70;;;3.90;;
15567;SDS011;7885;42.596;23.044;2023-02-01T13:12:10;3.17;;;1.83;;
15567;SDS011;7885;42.596;23.044;2023-02-01T13:14:42;2.93;;;2.63;;
15567;SDS011;7885;42.596;23.044;2023-02-01T13:17:14;1.93;;;1.70;;
15567;SDS011;7885;42.596;23.044;2023-02-01T13:19:44;5.17;;;3.20;;
15567;SDS011;7885;42.596;23.044;2023-02-01T13:22:17;6.23;;;3.40;;
15567;SDS011;7885;42.596;23.044;2023-02-01T13:24:50;5.20;;;4.47;;
15567;SDS011;7885;42.596;23.044;2023-02-01T13:27:22;7.20;;;6.10;;
15567;SDS011;7885;42.596;23.044;2023-02-01T13:29:56;3.80;;;2.50;;
15567;SDS011;7885;42.596;23.044;2023-02-01T13:32:39;9.97;;;7.97;;
15567;SDS011;7885;42.596;23.044;2023-02-01T13:35:28;6.07;;;4.93;;
15567;SDS011;7885;42.596;23.044;2023-02-01T13:38:20;3.30;;;2.60;;
15567;SDS011;7885;42.596;23.044;2023-02-01T13:41:06;4.73;;;3.70;;
15567;SDS011;7885;42.596;23.044;2023-02-01T13:43:45;7.33;;;3.80;;
15567;SDS011;7885;42.596;23.044;2023-02-01T13:46:15;6.13;;;3.60;;
15567;SDS011;7885;42.596;23.044;2023-02-01T13:48:45;8.73;;;5.90;;
15567;SDS011;7885;42.596;23.044;2023-02-01T13:51:14;5.50;;;4.83;;
15567;SDS011;7885;42.596;23.044;2023-02-01T13:53:44;4.13;;;3.40;;
15567;SDS011;7885;42.596;23.044;2023-02-01T13:56:15;6.07;;;5.07;;
15567;SDS011;7885;42.596;23.044;2023-02-01T13:58:45;6.47;;;3.63;;
15567;SDS011;7885;42.596;23.044;2023-02-01T14:01:33;7.30;;;4.47;;
15567;SDS011;7885;42.596;23.044;2023-02-01T14:04:01;11.63;;;6.53;;
15567;SDS011;7885;42.596;23.044;2023-02-01T14:06:42;15.40;;;8.80;;
15567;SDS011;7885;42.596;23.044;2023-02-01T14:09:12;6.03;;;4.00;;
15567;SDS011;7885;42.596;23.044;2023-02-01T14:11:43;5.43;;;3.77;;
15567;SDS011;7885;42.596;23.044;2023-02-01T14:23:17;3.30;;;2.43;;
15567;SDS011;7885;42.596;23.044;2023-02-01T14:25:48;4.53;;;4.13;;
15567;SDS011;7885;42.596;23.044;2023-02-01T14:28:43;5.50;;;4.27;;
15567;SDS011;7885;42.596;23.044;2023-02-01T14:31:16;5.97;;;5.13;;
15567;SDS011;7885;42.596;23.044;2023-02-01T14:33:53;6.97;;;5.70;;
15567;SDS011;7885;42.596;23.044;2023-02-01T14:36:24;9.20;;;6.83;;
15567;SDS011;7885;42.596;23.044;2023-02-01T14:38:52;8.67;;;5.20;;
15567;SDS011;7885;42.596;23.044;2023-02-01T14:41:29;8.17;;;6.30;;
15567;SDS011;7885;42.596;23.044;2023-02-01T14:47:08;12.73;;;9.77;;
15567;SDS011;7885;42.596;23.044;2023-02-01T14:52:51;9.40;;;6.23;;
15567;SDS011;7885;42.596;23.044;2023-02-01T14:55:30;13.27;;;8.97;;
15567;SDS011;7885;42.596;23.044;2023-02-01T14:58:02;16.20;;;9.40;;
15567;SDS011;7885;42.596;23.044;2023-02-01T15:00:32;12.17;;;8.33;;
15567;SDS011;7885;42.596;23.044;2023-02-01T15:03:15;13.07;;;9.33;;
15567;SDS011;7885;42.596;23.044;2023-02-01T15:05:54;14.97;;;9.80;;
15567;SDS011;7885;42.596;23.044;2023-02-01T15:08:23;9.17;;;6.43;;
15567;SDS011;7885;42.596;23.044;2023-02-01T15:10:53;5.73;;;3.43;;
15567;SDS011;7885;42.596;23.044;2023-02-01T15:13:21;14.60;;;9.90;;
15567;SDS011;7885;42.596;23.044;2023-02-01T15:16:02;3.73;;;2.10;;
15567;SDS011;7885;42.596;23.044;2023-02-01T15:18:32;21.47;;;13.60;;
15567;SDS011;7885;42.596;23.044;2023-02-01T15:21:00;12.97;;;9.50;;
15567;SDS011;7885;42.596;23.044;2023-02-01T15:23:27;19.27;;;11.53;;
15567;SDS011;7885;42.596;23.044;2023-02-01T15:25:55;13.73;;;7.50;;
15567;SDS011;7885;42.596;23.044;2023-02-01T15:28:21;11.73;;;6.20;;
15567;SDS011;7885;42.596;23.044;2023-02-01T15:30:53;16.10;;;8.80;;
15567;SDS011;7885;42.596;23.044;2023-02-01T15:33:22;7.83;;;5.70;;